sensor_id;sensor_type;location;lat;lon;timestamp;P1;durP1;ratioP1;P2;durP2;ratioP2
64297;SDS011;50639;53.270;7.956;2023-04-25T00:00:49;23.17;;;5.30;;
64297;SDS011;50639;53.270;7.956;2023-04-25T00:03:15;27.10;;;5.78;;
64297;SDS011;50639;53.270;7.956;2023-04-25T00:05:41;25.75;;;5.75;;
64297;SDS011;50639;53.270;7.956;2023-04-25T00:08:06;21.75;;;5.22;;
64297;SDS011;50639;53.270;7.956;2023-04-25T00:10:32;33.67;;;6.07;;
64297;SDS011;50639;53.270;7.956;2023-04-25T00:12:58;27.30;;;5.85;;
64297;SDS011;50639;53.270;7.956;2023-04-25T00:15:23;29.58;;;5.40;;
64297;SDS011;50639;53.270;7.956;2023-04-25T00:17:49;23.60;;;6.07;;
64297;SDS011;50639;53.270;7.956;2023-04-25T00:20:14;33.50;;;6.65;;
64297;SDS011;50639;53.270;7.956;2023-04-25T00:22:40;26.35;;;6.70;;
64297;SDS011;50639;53.270;7.956;2023-04-25T00:25:06;35.30;;;5.95;;
64297;SDS011;50639;53.270;7.956;2023-04-25T00:27:31;24.02;;;5.53;;
64297;SDS011;50639;53.270;7.956;2023-04-25T00:29:57;33.63;;;6.60;;
64297;SDS011;50639;53.270;7.956;2023-04-25T00:32:23;26.48;;;5.95;;
64297;SDS011;50639;53.270;7.956;2023-04-25T00:34:48;23.17;;;5.40;;
64297;SDS011;50639;53.270;7.956;2023-04-25T00:37:13;27.15;;;5.43;;
64297;SDS011;50639;53.270;7.956;2023-04-25T00:39:39;26.95;;;5.78;;
64297;SDS011;50639;53.270;7.956;2023-04-25T00:42:05;25.77;;;5.85;;
64297;SDS011;50639;53.270;7.956;2023-04-25T00:44:31;30.73;;;5.65;;
64297;SDS011;50639;53.270;7.956;2023-04-25T00:46:57;30.02;;;5.85;;
64297;SDS011;50639;53.270;7.956;2023-04-25T00:49:23;26.45;;;5.55;;
64297;SDS011;50639;53.270;7.956;2023-04-25T00:51:48;28.33;;;6.68;;
64297;SDS011;50639;53.270;7.956;2023-04-25T00:54:14;28.92;;;6.18;;
64297;SDS011;50639;53.270;7.956;2023-04-25T00:56:40;20.75;;;5.25;;
64297;SDS011;50639;53.270;7.956;2023-04-25T00:59:06;28.27;;;5.68;;
64297;SDS011;50639;53.270;7.956;2023-04-25T01:01:33;27.05;;;6.45;;
64297;SDS011;50639;53.270;7.956;2023-04-25T01:04:00;20.52;;;4.95;;
64297;SDS011;50639;53.270;7.956;2023-04-25T01:06:26;23.67;;;6.25;;
64297;SDS011;50639;53.270;7.956;2023-04-25T01:08:52;27.92;;;5.18;;
64297;SDS011;50639;53.270;7.956;2023-04-25T01:11:18;26.50;;;6.13;;
64297;SDS011;50639;53.270;7.956;2023-04-25T01:13:43;24.95;;;5.55;;
64297;SDS011;50639;53.270;7.956;2023-04-25T01:16:09;32.78;;;6.60;;
64297;SDS011;50639;53.270;7.956;2023-04-25T01:18:36;22.40;;;4.70;;
64297;SDS011;50639;53.270;7.956;2023-04-25T01:21:07;26.67;;;4.97;;
64297;SDS011;50639;53.270;7.956;2023-04-25T01:23:35;24.00;;;5.57;;
64297;SDS011;50639;53.270;7.956;2023-04-25T01:26:01;21.65;;;5.00;;
64297;SDS011;50639;53.270;7.956;2023-04-25T01:28:28;28.63;;;5.30;;
64297;SDS011;50639;53.270;7.956;2023-04-25T01:30:54;30.63;;;6.18;;
64297;SDS011;50639;53.270;7.956;2023-04-25T01:33:24;25.92;;;5.60;;
64297;SDS011;50639;53.270;7.956;2023-04-25T01:35:50;27.02;;;6.25;;
64297;SDS011;50639;53.270;7.956;2023-04-25T01:38:18;23.50;;;5.60;;
64297;SDS011;50639;53.270;7.956;2023-04-25T01:40:44;26.83;;;5.57;;
64297;SDS011;50639;53.270;7.956;2023-04-25T01:43:11;31.23;;;6.30;;
64297;SDS011;50639;53.270;7.956;2023-04-25T01:45:38;27.10;;;6.00;;
64297;SDS011;50639;53.270;7.956;2023-04-25T01:48:10;22.00;;;4.97;;
64297;SDS011;50639;53.270;7.956;2023-04-25T01:50:37;23.27;;;4.55;;
64297;SDS011;50639;53.270;7.956;2023-04-25T01:53:04;24.83;;;6.53;;
64297;SDS011;50639;53.270;7.956;2023-04-25T01:55:30;27.05;;;5.38;;
64297;SDS011;50639;53.270;7.956;2023-04-25T01:58:04;24.52;;;5.22;;
64297;SDS011;50639;53.270;7.956;2023-04-25T02:01:03;19.25;;;4.82;;
64297;SDS011;50639;53.270;7.956;2023-04-25T02:03:36;20.98;;;5.18;;
64297;SDS011;50639;53.270;7.956;2023-04-25T02:06:04;23.05;;;5.65;;
64297;SDS011;50639;53.270;7.956;2023-04-25T02:08:32;21.90;;;5.00;;
64297;SDS011;50639;53.270;7.956;2023-04-25T02:10:58;22.27;;;4.93;;
64297;SDS011;50639;53.270;7.956;2023-04-25T02:13:30;23.65;;;5.05;;
64297;SDS011;50639;53.270;7.956;2023-04-25T02:16:14;29.50;;;5.53;;
64297;SDS011;50639;53.270;7.956;2023-04-25T02:18:39;28.67;;;5.25;;
64297;SDS011;50639;53.270;7.956;2023-04-25T02:21:05;19.13;;;5.40;;
64297;SDS011;50639;53.270;7.956;2023-04-25T02:23:31;20.10;;;4.20;;
64297;SDS011;50639;53.270;7.956;2023-04-25T02:25:58;23.33;;;4.75;;
64297;SDS011;50639;53.270;7.956;2023-04-25T02:28:27;21.73;;;4.32;;
64297;SDS011;50639;53.270;7.956;2023-04-25T02:30:52;19.20;;;4.68;;
64297;SDS011;50639;53.270;7.956;2023-04-25T02:33:18;16.10;;;3.85;;
64297;SDS011;50639;53.270;7.956;2023-04-25T02:35:44;23.58;;;5.07;;
64297;SDS011;50639;53.270;7.956;2023-04-25T02:38:09;19.17;;;5.18;;
64297;SDS011;50639;53.270;7.956;2023-04-25T02:40:35;20.73;;;5.07;;
64297;SDS011;50639;53.270;7.956;2023-04-25T02:43:00;20.92;;;4.90;;
64297;SDS011;50639;53.270;7.956;2023-04-25T02:45:25;18.08;;;3.97;;
64297;SDS011;50639;53.270;7.956;2023-04-25T02:47:51;21.33;;;4.32;;
64297;SDS011;50639;53.270;7.956;2023-04-25T02:50:18;24.57;;;4.73;;
64297;SDS011;50639;53.270;7.956;2023-04-25T02:52:43;22.65;;;4.13;;
64297;SDS011;50639;53.270;7.956;2023-04-25T02:55:14;22.98;;;4.65;;
64297;SDS011;50639;53.270;7.956;2023-04-25T02:57:40;19.92;;;4.28;;
64297;SDS011;50639;53.270;7.956;2023-04-25T03:00:08;17.38;;;4.10;;
64297;SDS011;50639;53.270;7.956;2023-04-25T03:02:37;23.40;;;4.78;;
64297;SDS011;50639;53.270;7.956;2023-04-25T03:05:02;21.10;;;4.28;;
64297;SDS011;50639;53.270;7.956;2023-04-25T03:07:28;26.08;;;4.93;;
64297;SDS011;50639;53.270;7.956;2023-04-25T03:09:54;20.00;;;4.40;;
64297;SDS011;50639;53.270;7.956;2023-04-25T03:12:22;22.95;;;4.70;;
64297;SDS011;50639;53.270;7.956;2023-04-25T03:14:47;23.52;;;4.70;;
64297;SDS011;50639;53.270;7.956;2023-04-25T03:17:14;16.40;;;4.07;;
64297;SDS011;50639;53.270;7.956;2023-04-25T03:19:39;21.67;;;5.57;;
64297;SDS011;50639;53.270;7.956;2023-04-25T03:22:05;16.48;;;4.15;;
64297;SDS011;50639;53.270;7.956;2023-04-25T03:24:31;20.38;;;4.53;;
64297;SDS011;50639;53.270;7.956;2023-04-25T03:26:57;22.95;;;4.38;;
64297;SDS011;50639;53.270;7.956;2023-04-25T03:29:22;20.17;;;4.70;;
64297;SDS011;50639;53.270;7.956;2023-04-25T03:31:51;22.02;;;3.97;;
64297;SDS011;50639;53.270;7.956;2023-04-25T03:34:18;18.92;;;5.13;;
64297;SDS011;50639;53.270;7.956;2023-04-25T03:36:44;17.52;;;4.57;;
64297;SDS011;50639;53.270;7.956;2023-04-25T03:39:10;18.42;;;4.13;;
64297;SDS011;50639;53.270;7.956;2023-04-25T03:41:37;16.25;;;3.88;;
64297;SDS011;50639;53.270;7.956;2023-04-25T03:44:08;16.05;;;4.05;;
64297;SDS011;50639;53.270;7.956;2023-04-25T03:46:33;13.55;;;3.53;;
64297;SDS011;50639;53.270;7.956;2023-04-25T03:48:59;20.08;;;3.70;;
64297;SDS011;50639;53.270;7.956;2023-04-25T03:51:35;25.55;;;4.28;;
64297;SDS011;50639;53.270;7.956;2023-04-25T03:54:01;18.15;;;4.20;;
64297;SDS011;50639;53.270;7.956;2023-04-25T03:56:29;20.20;;;4.55;;
64297;SDS011;50639;53.270;7.956;2023-04-25T03:59:03;23.05;;;5.03;;
64297;SDS011;50639;53.270;7.956;2023-04-25T04:01:30;19.25;;;4.43;;
64297;SDS011;50639;53.270;7.956;2023-04-25T04:03:56;14.65;;;3.97;;
64297;SDS011;50639;53.270;7.956;2023-04-25T04:06:23;19.27;;;3.72;;
64297;SDS011;50639;53.270;7.956;2023-04-25T04:08:56;21.77;;;3.88;;
64297;SDS011;50639;53.270;7.956;2023-04-25T04:11:23;17.48;;;4.10;;
64297;SDS011;50639;53.270;7.956;2023-04-25T04:13:48;18.20;;;4.35;;
64297;SDS011;50639;53.270;7.956;2023-04-25T04:16:14;18.40;;;3.63;;
64297;SDS011;50639;53.270;7.956;2023-04-25T04:18:40;13.35;;;3.60;;
64297;SDS011;50639;53.270;7.956;2023-04-25T04:21:06;21.40;;;4.28;;
64297;SDS011;50639;53.270;7.956;2023-04-25T04:23:34;11.30;;;3.33;;
64297;SDS011;50639;53.270;7.956;2023-04-25T04:25:59;17.55;;;3.38;;
64297;SDS011;50639;53.270;7.956;2023-04-25T04:28:25;15.73;;;3.55;;
64297;SDS011;50639;53.270;7.956;2023-04-25T04:31:17;17.95;;;4.55;;
64297;SDS011;50639;53.270;7.956;2023-04-25T04:33:46;16.92;;;3.90;;
64297;SDS011;50639;53.270;7.956;2023-04-25T04:36:13;14.98;;;3.38;;
64297;SDS011;50639;53.270;7.956;2023-04-25T04:38:39;13.43;;;3.40;;
64297;SDS011;50639;53.270;7.956;2023-04-25T04:41:16;16.92;;;3.70;;
64297;SDS011;50639;53.270;7.956;2023-04-25T04:43:50;15.80;;;4.00;;
64297;SDS011;50639;53.270;7.956;2023-04-25T04:46:28;17.00;;;3.90;;
64297;SDS011;50639;53.270;7.956;2023-04-25T04:49:15;18.63;;;3.50;;
64297;SDS011;50639;53.270;7.956;2023-04-25T04:52:02;12.30;;;3.10;;
64297;SDS011;50639;53.270;7.956;2023-04-25T04:54:46;17.92;;;3.70;;
64297;SDS011;50639;53.270;7.956;2023-04-25T04:57:27;14.00;;;3.25;;
64297;SDS011;50639;53.270;7.956;2023-04-25T05:00:00;12.60;;;3.45;;
64297;SDS011;50639;53.270;7.956;2023-04-25T05:02:44;11.68;;;3.65;;
64297;SDS011;50639;53.270;7.956;2023-04-25T05:05:33;15.00;;;3.83;;
64297;SDS011;50639;53.270;7.956;2023-04-25T05:08:19;17.35;;;3.50;;
64297;SDS011;50639;53.270;7.956;2023-04-25T05:10:58;14.05;;;3.22;;
64297;SDS011;50639;53.270;7.956;2023-04-25T05:13:33;18.02;;;4.10;;
64297;SDS011;50639;53.270;7.956;2023-04-25T05:16:07;18.08;;;3.90;;
64297;SDS011;50639;53.270;7.956;2023-04-25T05:18:43;16.60;;;3.80;;
64297;SDS011;50639;53.270;7.956;2023-04-25T05:21:41;16.42;;;4.35;;
64297;SDS011;50639;53.270;7.956;2023-04-25T05:24:17;13.95;;;3.72;;
64297;SDS011;50639;53.270;7.956;2023-04-25T05:27:01;16.63;;;3.65;;
64297;SDS011;50639;53.270;7.956;2023-04-25T05:29:46;13.50;;;3.38;;
64297;SDS011;50639;53.270;7.956;2023-04-25T05:32:22;16.50;;;3.83;;
64297;SDS011;50639;53.270;7.956;2023-04-25T05:34:49;12.40;;;3.50;;
64297;SDS011;50639;53.270;7.956;2023-04-25T05:37:27;15.98;;;4.47;;
64297;SDS011;50639;53.270;7.956;2023-04-25T05:40:08;13.60;;;3.63;;
64297;SDS011;50639;53.270;7.956;2023-04-25T05:42:49;16.48;;;3.85;;
64297;SDS011;50639;53.270;7.956;2023-04-25T05:45:33;15.63;;;3.55;;
64297;SDS011;50639;53.270;7.956;2023-04-25T05:48:17;13.57;;;4.20;;
64297;SDS011;50639;53.270;7.956;2023-04-25T05:51:03;12.65;;;3.42;;
64297;SDS011;50639;53.270;7.956;2023-04-25T05:53:48;17.25;;;3.33;;
64297;SDS011;50639;53.270;7.956;2023-04-25T05:56:14;13.68;;;3.45;;
64297;SDS011;50639;53.270;7.956;2023-04-25T05:58:39;20.92;;;3.20;;
64297;SDS011;50639;53.270;7.956;2023-04-25T06:01:06;14.77;;;3.43;;
64297;SDS011;50639;53.270;7.956;2023-04-25T06:03:32;11.63;;;3.60;;
64297;SDS011;50639;53.270;7.956;2023-04-25T06:05:57;15.75;;;3.20;;
64297;SDS011;50639;53.270;7.956;2023-04-25T06:08:24;13.80;;;3.28;;
64297;SDS011;50639;53.270;7.956;2023-04-25T06:10:50;15.05;;;3.30;;
64297;SDS011;50639;53.270;7.956;2023-04-25T06:13:16;13.43;;;3.70;;
64297;SDS011;50639;53.270;7.956;2023-04-25T06:15:41;11.40;;;2.95;;
64297;SDS011;50639;53.270;7.956;2023-04-25T06:18:07;10.93;;;3.15;;
64297;SDS011;50639;53.270;7.956;2023-04-25T06:20:33;13.40;;;4.10;;
64297;SDS011;50639;53.270;7.956;2023-04-25T06:23:00;15.15;;;2.80;;
64297;SDS011;50639;53.270;7.956;2023-04-25T06:25:35;16.48;;;3.33;;
64297;SDS011;50639;53.270;7.956;2023-04-25T06:28:01;13.38;;;2.95;;
64297;SDS011;50639;53.270;7.956;2023-04-25T06:30:26;12.05;;;3.13;;
64297;SDS011;50639;53.270;7.956;2023-04-25T06:32:58;13.48;;;3.22;;
64297;SDS011;50639;53.270;7.956;2023-04-25T06:35:27;10.75;;;3.28;;
64297;SDS011;50639;53.270;7.956;2023-04-25T06:37:52;14.00;;;3.10;;
64297;SDS011;50639;53.270;7.956;2023-04-25T06:40:21;12.20;;;2.78;;
64297;SDS011;50639;53.270;7.956;2023-04-25T06:42:46;17.60;;;3.47;;
64297;SDS011;50639;53.270;7.956;2023-04-25T06:45:35;14.80;;;3.00;;
64297;SDS011;50639;53.270;7.956;2023-04-25T06:48:01;14.98;;;3.35;;
64297;SDS011;50639;53.270;7.956;2023-04-25T06:50:27;13.18;;;2.88;;
64297;SDS011;50639;53.270;7.956;2023-04-25T06:52:53;16.15;;;3.63;;
64297;SDS011;50639;53.270;7.956;2023-04-25T06:55:19;15.20;;;3.60;;
64297;SDS011;50639;53.270;7.956;2023-04-25T06:58:08;23.60;;;4.10;;
64297;SDS011;50639;53.270;7.956;2023-04-25T07:00:55;14.02;;;3.33;;
64297;SDS011;50639;53.270;7.956;2023-04-25T07:03:23;13.23;;;2.78;;
64297;SDS011;50639;53.270;7.956;2023-04-25T07:05:51;13.35;;;3.40;;
64297;SDS011;50639;53.270;7.956;2023-04-25T07:08:17;10.93;;;3.33;;
64297;SDS011;50639;53.270;7.956;2023-04-25T07:10:43;14.88;;;3.28;;
64297;SDS011;50639;53.270;7.956;2023-04-25T07:13:09;18.25;;;3.30;;
64297;SDS011;50639;53.270;7.956;2023-04-25T07:15:35;12.93;;;3.50;;
64297;SDS011;50639;53.270;7.956;2023-04-25T07:18:01;9.73;;;2.75;;
64297;SDS011;50639;53.270;7.956;2023-04-25T07:20:27;12.60;;;3.42;;
64297;SDS011;50639;53.270;7.956;2023-04-25T07:22:54;10.60;;;3.17;;
64297;SDS011;50639;53.270;7.956;2023-04-25T07:25:20;11.30;;;3.33;;
64297;SDS011;50639;53.270;7.956;2023-04-25T07:27:46;15.27;;;4.20;;
64297;SDS011;50639;53.270;7.956;2023-04-25T07:30:15;14.80;;;2.67;;
64297;SDS011;50639;53.270;7.956;2023-04-25T07:32:41;11.90;;;2.40;;
64297;SDS011;50639;53.270;7.956;2023-04-25T07:35:06;9.07;;;2.53;;
64297;SDS011;50639;53.270;7.956;2023-04-25T07:37:33;12.52;;;2.58;;
64297;SDS011;50639;53.270;7.956;2023-04-25T07:40:09;7.70;;;2.28;;
64297;SDS011;50639;53.270;7.956;2023-04-25T07:42:38;10.73;;;2.75;;
64297;SDS011;50639;53.270;7.956;2023-04-25T07:45:05;8.03;;;2.50;;
64297;SDS011;50639;53.270;7.956;2023-04-25T07:47:31;10.17;;;2.20;;
64297;SDS011;50639;53.270;7.956;2023-04-25T07:49:57;15.50;;;3.42;;
64297;SDS011;50639;53.270;7.956;2023-04-25T07:52:23;9.23;;;2.13;;
64297;SDS011;50639;53.270;7.956;2023-04-25T07:54:54;13.02;;;2.47;;
64297;SDS011;50639;53.270;7.956;2023-04-25T07:57:27;8.48;;;2.60;;
64297;SDS011;50639;53.270;7.956;2023-04-25T07:59:54;10.63;;;2.97;;
64297;SDS011;50639;53.270;7.956;2023-04-25T08:02:21;12.30;;;3.30;;
64297;SDS011;50639;53.270;7.956;2023-04-25T08:04:46;11.02;;;2.90;;
64297;SDS011;50639;53.270;7.956;2023-04-25T08:07:15;10.98;;;2.60;;
64297;SDS011;50639;53.270;7.956;2023-04-25T08:09:48;9.88;;;2.78;;
64297;SDS011;50639;53.270;7.956;2023-04-25T08:12:22;11.85;;;2.80;;
64297;SDS011;50639;53.270;7.956;2023-04-25T08:14:48;12.15;;;2.53;;
64297;SDS011;50639;53.270;7.956;2023-04-25T08:17:13;12.13;;;2.67;;
64297;SDS011;50639;53.270;7.956;2023-04-25T08:19:40;11.43;;;2.45;;
64297;SDS011;50639;53.270;7.956;2023-04-25T08:22:11;13.13;;;2.40;;
64297;SDS011;50639;53.270;7.956;2023-04-25T08:24:48;10.25;;;2.67;;
64297;SDS011;50639;53.270;7.956;2023-04-25T08:27:15;9.25;;;2.40;;
64297;SDS011;50639;53.270;7.956;2023-04-25T08:29:41;9.75;;;2.67;;
64297;SDS011;50639;53.270;7.956;2023-04-25T08:32:07;8.93;;;2.28;;
64297;SDS011;50639;53.270;7.956;2023-04-25T08:34:36;10.68;;;2.78;;
64297;SDS011;50639;53.270;7.956;2023-04-25T08:37:03;10.27;;;2.50;;
64297;SDS011;50639;53.270;7.956;2023-04-25T08:39:45;9.88;;;2.55;;
64297;SDS011;50639;53.270;7.956;2023-04-25T08:44:39;9.05;;;2.63;;
64297;SDS011;50639;53.270;7.956;2023-04-25T08:47:05;9.95;;;2.38;;
64297;SDS011;50639;53.270;7.956;2023-04-25T08:49:34;11.50;;;2.38;;
64297;SDS011;50639;53.270;7.956;2023-04-25T08:52:01;16.02;;;2.80;;
64297;SDS011;50639;53.270;7.956;2023-04-25T08:54:31;10.65;;;2.80;;
64297;SDS011;50639;53.270;7.956;2023-04-25T08:57:00;9.52;;;2.50;;
64297;SDS011;50639;53.270;7.956;2023-04-25T08:59:27;13.63;;;2.90;;
64297;SDS011;50639;53.270;7.956;2023-04-25T09:01:54;10.95;;;3.08;;
64297;SDS011;50639;53.270;7.956;2023-04-25T09:04:21;7.63;;;2.22;;
64297;SDS011;50639;53.270;7.956;2023-04-25T09:06:47;6.13;;;2.50;;
64297;SDS011;50639;53.270;7.956;2023-04-25T09:09:13;8.07;;;2.27;;
64297;SDS011;50639;53.270;7.956;2023-04-25T09:11:39;10.77;;;2.95;;
64297;SDS011;50639;53.270;7.956;2023-04-25T09:14:18;16.20;;;3.38;;
64297;SDS011;50639;53.270;7.956;2023-04-25T09:17:03;8.57;;;2.40;;
64297;SDS011;50639;53.270;7.956;2023-04-25T09:19:41;7.03;;;2.25;;
64297;SDS011;50639;53.270;7.956;2023-04-25T09:22:30;8.98;;;2.28;;
64297;SDS011;50639;53.270;7.956;2023-04-25T09:24:57;11.98;;;2.65;;
64297;SDS011;50639;53.270;7.956;2023-04-25T09:27:27;11.98;;;2.83;;
64297;SDS011;50639;53.270;7.956;2023-04-25T09:30:01;10.48;;;2.40;;
64297;SDS011;50639;53.270;7.956;2023-04-25T09:32:41;9.90;;;2.85;;
64297;SDS011;50639;53.270;7.956;2023-04-25T09:35:08;9.52;;;2.53;;
64297;SDS011;50639;53.270;7.956;2023-04-25T09:37:34;6.57;;;2.45;;
64297;SDS011;50639;53.270;7.956;2023-04-25T09:40:23;5.47;;;2.30;;
64297;SDS011;50639;53.270;7.956;2023-04-25T09:42:56;7.85;;;2.38;;
64297;SDS011;50639;53.270;7.956;2023-04-25T09:45:24;11.30;;;2.78;;
64297;SDS011;50639;53.270;7.956;2023-04-25T09:47:50;12.82;;;2.60;;
64297;SDS011;50639;53.270;7.956;2023-04-25T09:50:24;12.10;;;2.78;;
64297;SDS011;50639;53.270;7.956;2023-04-25T09:53:03;10.27;;;2.30;;
64297;SDS011;50639;53.270;7.956;2023-04-25T09:56:00;10.60;;;2.53;;
64297;SDS011;50639;53.270;7.956;2023-04-25T09:58:29;12.35;;;2.85;;
64297;SDS011;50639;53.270;7.956;2023-04-25T10:00:56;12.63;;;2.85;;
64297;SDS011;50639;53.270;7.956;2023-04-25T10:03:39;11.82;;;2.28;;
64297;SDS011;50639;53.270;7.956;2023-04-25T10:06:21;16.15;;;2.80;;
64297;SDS011;50639;53.270;7.956;2023-04-25T10:08:49;12.75;;;2.55;;
64297;SDS011;50639;53.270;7.956;2023-04-25T10:11:16;8.93;;;2.38;;
64297;SDS011;50639;53.270;7.956;2023-04-25T10:13:42;10.13;;;2.50;;
64297;SDS011;50639;53.270;7.956;2023-04-25T10:16:09;11.05;;;3.00;;
64297;SDS011;50639;53.270;7.956;2023-04-25T10:18:35;11.40;;;2.80;;
64297;SDS011;50639;53.270;7.956;2023-04-25T10:21:02;9.87;;;2.50;;
64297;SDS011;50639;53.270;7.956;2023-04-25T10:23:30;8.75;;;3.15;;
64297;SDS011;50639;53.270;7.956;2023-04-25T10:25:56;8.63;;;2.63;;
64297;SDS011;50639;53.270;7.956;2023-04-25T10:28:23;9.63;;;2.80;;
64297;SDS011;50639;53.270;7.956;2023-04-25T10:30:58;10.35;;;2.50;;
64297;SDS011;50639;53.270;7.956;2023-04-25T10:33:51;15.57;;;2.58;;
64297;SDS011;50639;53.270;7.956;2023-04-25T10:36:22;9.20;;;2.63;;
64297;SDS011;50639;53.270;7.956;2023-04-25T10:38:51;7.45;;;2.42;;
64297;SDS011;50639;53.270;7.956;2023-04-25T10:41:20;10.82;;;2.50;;
64297;SDS011;50639;53.270;7.956;2023-04-25T10:43:48;11.52;;;2.70;;
64297;SDS011;50639;53.270;7.956;2023-04-25T10:48:50;10.25;;;2.75;;
64297;SDS011;50639;53.270;7.956;2023-04-25T10:53:44;13.35;;;2.83;;
64297;SDS011;50639;53.270;7.956;2023-04-25T10:56:26;8.75;;;2.42;;
64297;SDS011;50639;53.270;7.956;2023-04-25T10:59:08;9.80;;;2.55;;
64297;SDS011;50639;53.270;7.956;2023-04-25T11:01:38;7.07;;;2.53;;
64297;SDS011;50639;53.270;7.956;2023-04-25T11:04:05;10.48;;;2.70;;
64297;SDS011;50639;53.270;7.956;2023-04-25T11:10:02;11.32;;;3.08;;
64297;SDS011;50639;53.270;7.956;2023-04-25T11:12:29;13.27;;;3.60;;
64297;SDS011;50639;53.270;7.956;2023-04-25T11:14:59;13.98;;;2.95;;
64297;SDS011;50639;53.270;7.956;2023-04-25T11:17:30;11.27;;;2.72;;
64297;SDS011;50639;53.270;7.956;2023-04-25T11:19:56;11.57;;;3.05;;
64297;SDS011;50639;53.270;7.956;2023-04-25T11:22:23;16.15;;;2.80;;
64297;SDS011;50639;53.270;7.956;2023-04-25T11:24:48;11.23;;;2.83;;
64297;SDS011;50639;53.270;7.956;2023-04-25T11:27:14;11.73;;;3.35;;
64297;SDS011;50639;53.270;7.956;2023-04-25T11:29:40;12.15;;;2.35;;
64297;SDS011;50639;53.270;7.956;2023-04-25T11:32:06;7.75;;;2.20;;
64297;SDS011;50639;53.270;7.956;2023-04-25T11:34:33;8.95;;;2.45;;
64297;SDS011;50639;53.270;7.956;2023-04-25T11:36:59;7.63;;;2.20;;
64297;SDS011;50639;53.270;7.956;2023-04-25T11:39:27;8.63;;;2.20;;
64297;SDS011;50639;53.270;7.956;2023-04-25T11:41:53;8.82;;;2.60;;
64297;SDS011;50639;53.270;7.956;2023-04-25T11:44:19;10.10;;;2.58;;
64297;SDS011;50639;53.270;7.956;2023-04-25T11:46:46;7.75;;;2.50;;
64297;SDS011;50639;53.270;7.956;2023-04-25T11:49:12;8.63;;;2.45;;
64297;SDS011;50639;53.270;7.956;2023-04-25T11:51:39;9.43;;;2.70;;
64297;SDS011;50639;53.270;7.956;2023-04-25T11:54:09;11.23;;;2.47;;
64297;SDS011;50639;53.270;7.956;2023-04-25T11:56:35;9.55;;;3.03;;
64297;SDS011;50639;53.270;7.956;2023-04-25T11:59:04;5.50;;;2.00;;
64297;SDS011;50639;53.270;7.956;2023-04-25T12:01:31;7.90;;;2.10;;
64297;SDS011;50639;53.270;7.956;2023-04-25T12:03:58;10.55;;;2.13;;
64297;SDS011;50639;53.270;7.956;2023-04-25T12:06:38;5.57;;;2.00;;
64297;SDS011;50639;53.270;7.956;2023-04-25T12:09:09;4.05;;;2.05;;
64297;SDS011;50639;53.270;7.956;2023-04-25T12:11:43;10.23;;;2.80;;
64297;SDS011;50639;53.270;7.956;2023-04-25T12:14:09;8.70;;;2.40;;
64297;SDS011;50639;53.270;7.956;2023-04-25T12:16:42;10.23;;;2.55;;
64297;SDS011;50639;53.270;7.956;2023-04-25T12:19:09;6.65;;;2.25;;
64297;SDS011;50639;53.270;7.956;2023-04-25T12:21:35;8.50;;;2.40;;
64297;SDS011;50639;53.270;7.956;2023-04-25T12:26:51;11.18;;;2.17;;
64297;SDS011;50639;53.270;7.956;2023-04-25T12:31:54;5.65;;;1.98;;
64297;SDS011;50639;53.270;7.956;2023-04-25T12:34:20;6.35;;;1.88;;
64297;SDS011;50639;53.270;7.956;2023-04-25T12:36:47;11.20;;;2.20;;
64297;SDS011;50639;53.270;7.956;2023-04-25T12:39:16;9.75;;;2.25;;
64297;SDS011;50639;53.270;7.956;2023-04-25T12:41:42;9.23;;;2.83;;
64297;SDS011;50639;53.270;7.956;2023-04-25T12:44:08;7.97;;;2.50;;
64297;SDS011;50639;53.270;7.956;2023-04-25T12:46:35;7.47;;;2.58;;
64297;SDS011;50639;53.270;7.956;2023-04-25T12:49:00;6.50;;;2.30;;
64297;SDS011;50639;53.270;7.956;2023-04-25T12:51:26;8.77;;;2.22;;
64297;SDS011;50639;53.270;7.956;2023-04-25T12:53:53;6.45;;;1.95;;
64297;SDS011;50639;53.270;7.956;2023-04-25T12:56:18;4.75;;;1.98;;
64297;SDS011;50639;53.270;7.956;2023-04-25T12:58:46;5.60;;;2.08;;
64297;SDS011;50639;53.270;7.956;2023-04-25T13:01:13;8.75;;;2.35;;
64297;SDS011;50639;53.270;7.956;2023-04-25T13:03:39;8.18;;;2.40;;
64297;SDS011;50639;53.270;7.956;2023-04-25T13:06:06;9.77;;;2.50;;
64297;SDS011;50639;53.270;7.956;2023-04-25T13:08:33;9.60;;;2.78;;
64297;SDS011;50639;53.270;7.956;2023-04-25T13:10:58;7.07;;;2.53;;
64297;SDS011;50639;53.270;7.956;2023-04-25T13:13:27;11.23;;;2.78;;
64297;SDS011;50639;53.270;7.956;2023-04-25T13:15:54;14.15;;;3.30;;
64297;SDS011;50639;53.270;7.956;2023-04-25T13:18:20;9.90;;;2.83;;
64297;SDS011;50639;53.270;7.956;2023-04-25T13:20:46;14.63;;;3.40;;
64297;SDS011;50639;53.270;7.956;2023-04-25T13:23:11;11.32;;;3.35;;
64297;SDS011;50639;53.270;7.956;2023-04-25T13:25:47;9.10;;;2.30;;
64297;SDS011;50639;53.270;7.956;2023-04-25T13:28:13;11.55;;;2.75;;
64297;SDS011;50639;53.270;7.956;2023-04-25T13:30:40;12.02;;;2.83;;
64297;SDS011;50639;53.270;7.956;2023-04-25T13:33:06;9.13;;;2.63;;
64297;SDS011;50639;53.270;7.956;2023-04-25T13:35:32;5.68;;;2.30;;
64297;SDS011;50639;53.270;7.956;2023-04-25T13:37:59;10.10;;;2.80;;
64297;SDS011;50639;53.270;7.956;2023-04-25T13:40:26;7.28;;;2.70;;
64297;SDS011;50639;53.270;7.956;2023-04-25T13:42:55;13.98;;;3.00;;
64297;SDS011;50639;53.270;7.956;2023-04-25T13:45:21;11.40;;;2.80;;
64297;SDS011;50639;53.270;7.956;2023-04-25T13:47:47;8.30;;;2.65;;
64297;SDS011;50639;53.270;7.956;2023-04-25T13:50:13;10.70;;;3.00;;
64297;SDS011;50639;53.270;7.956;2023-04-25T13:52:41;10.20;;;2.60;;
64297;SDS011;50639;53.270;7.956;2023-04-25T13:55:08;11.90;;;2.90;;
64297;SDS011;50639;53.270;7.956;2023-04-25T14:00:00;14.98;;;2.72;;
64297;SDS011;50639;53.270;7.956;2023-04-25T14:02:31;10.52;;;2.63;;
64297;SDS011;50639;53.270;7.956;2023-04-25T14:04:57;11.85;;;2.65;;
64297;SDS011;50639;53.270;7.956;2023-04-25T14:07:22;10.80;;;2.67;;
64297;SDS011;50639;53.270;7.956;2023-04-25T14:09:48;15.40;;;3.05;;
64297;SDS011;50639;53.270;7.956;2023-04-25T14:12:13;11.80;;;2.63;;
64297;SDS011;50639;53.270;7.956;2023-04-25T14:14:40;12.15;;;2.55;;
64297;SDS011;50639;53.270;7.956;2023-04-25T14:17:07;11.70;;;2.95;;
64297;SDS011;50639;53.270;7.956;2023-04-25T14:19:34;8.45;;;2.17;;
64297;SDS011;50639;53.270;7.956;2023-04-25T14:21:59;11.27;;;2.40;;
64297;SDS011;50639;53.270;7.956;2023-04-25T14:24:25;10.50;;;2.55;;
64297;SDS011;50639;53.270;7.956;2023-04-25T14:26:51;7.03;;;2.20;;
64297;SDS011;50639;53.270;7.956;2023-04-25T14:29:16;8.05;;;2.55;;
64297;SDS011;50639;53.270;7.956;2023-04-25T14:31:42;8.32;;;2.70;;
64297;SDS011;50639;53.270;7.956;2023-04-25T14:34:08;8.85;;;2.58;;
64297;SDS011;50639;53.270;7.956;2023-04-25T14:36:35;8.68;;;2.70;;
64297;SDS011;50639;53.270;7.956;2023-04-25T14:39:01;6.68;;;2.30;;
64297;SDS011;50639;53.270;7.956;2023-04-25T14:41:29;9.18;;;2.42;;
64297;SDS011;50639;53.270;7.956;2023-04-25T14:43:55;10.57;;;2.88;;
64297;SDS011;50639;53.270;7.956;2023-04-25T14:46:22;13.30;;;2.97;;
64297;SDS011;50639;53.270;7.956;2023-04-25T14:48:48;10.15;;;2.63;;
64297;SDS011;50639;53.270;7.956;2023-04-25T14:51:14;11.27;;;2.40;;
64297;SDS011;50639;53.270;7.956;2023-04-25T14:53:40;7.45;;;2.20;;
64297;SDS011;50639;53.270;7.956;2023-04-25T14:56:07;7.15;;;2.65;;
64297;SDS011;50639;53.270;7.956;2023-04-25T14:58:33;7.30;;;2.40;;
64297;SDS011;50639;53.270;7.956;2023-04-25T15:00:59;6.88;;;2.25;;
64297;SDS011;50639;53.270;7.956;2023-04-25T15:03:25;9.57;;;2.20;;
64297;SDS011;50639;53.270;7.956;2023-04-25T15:05:53;7.90;;;2.60;;
64297;SDS011;50639;53.270;7.956;2023-04-25T15:08:20;10.98;;;2.95;;